sensor_id;sensor_type;location;lat;lon;timestamp;P1;durP1;ratioP1;P2;durP2;ratioP2
57047;SDS011;42934;54.294;18.598;2022-12-15T00:00:43;102.37;;;39.20;;
57047;SDS011;42934;54.294;18.598;2022-12-15T00:03:30;100.23;;;38.03;;
57047;SDS011;42934;54.294;18.598;2022-12-15T00:06:18;103.03;;;40.10;;
57047;SDS011;42934;54.294;18.598;2022-12-15T00:09:05;95.53;;;37.57;;
57047;SDS011;42934;54.294;18.598;2022-12-15T00:11:56;100.73;;;41.40;;
57047;SDS011;42934;54.294;18.598;2022-12-15T00:14:43;109.13;;;40.10;;
57047;SDS011;42934;54.294;18.598;2022-12-15T00:17:30;110.20;;;41.53;;
57047;SDS011;42934;54.294;18.598;2022-12-15T00:20:16;104.40;;;38.37;;
57047;SDS011;42934;54.294;18.598;2022-12-15T00:23:08;99.00;;;38.07;;
57047;SDS011;42934;54.294;18.598;2022-12-15T00:25:56;88.60;;;35.27;;
57047;SDS011;42934;54.294;18.598;2022-12-15T00:28:43;93.47;;;36.40;;
57047;SDS011;42934;54.294;18.598;2022-12-15T00:31:30;94.30;;;37.37;;
57047;SDS011;42934;54.294;18.598;2022-12-15T00:34:16;98.47;;;36.50;;
57047;SDS011;42934;54.294;18.598;2022-12-15T00:37:03;92.43;;;36.20;;
57047;SDS011;42934;54.294;18.598;2022-12-15T00:39:51;105.70;;;38.97;;
57047;SDS011;42934;54.294;18.598;2022-12-15T00:42:25;96.13;;;39.80;;
57047;SDS011;42934;54.294;18.598;2022-12-15T00:44:55;109.05;;;42.65;;
57047;SDS011;42934;54.294;18.598;2022-12-15T00:47:25;106.00;;;41.83;;
57047;SDS011;42934;54.294;18.598;2022-12-15T00:49:53;103.83;;;39.33;;
57047;SDS011;42934;54.294;18.598;2022-12-15T00:52:40;85.07;;;32.73;;
57047;SDS011;42934;54.294;18.598;2022-12-15T00:55:28;105.37;;;40.80;;
57047;SDS011;42934;54.294;18.598;2022-12-15T00:58:15;112.63;;;42.67;;
57047;SDS011;42934;54.294;18.598;2022-12-15T01:01:04;109.40;;;40.90;;
57047;SDS011;42934;54.294;18.598;2022-12-15T01:03:51;105.70;;;37.50;;
57047;SDS011;42934;54.294;18.598;2022-12-15T01:06:38;100.00;;;39.83;;
57047;SDS011;42934;54.294;18.598;2022-12-15T01:09:26;98.83;;;37.53;;
57047;SDS011;42934;54.294;18.598;2022-12-15T01:12:14;117.27;;;42.63;;
57047;SDS011;42934;54.294;18.598;2022-12-15T01:15:01;116.60;;;43.83;;
57047;SDS011;42934;54.294;18.598;2022-12-15T01:17:48;132.13;;;49.40;;
57047;SDS011;42934;54.294;18.598;2022-12-15T01:20:35;123.17;;;46.03;;
57047;SDS011;42934;54.294;18.598;2022-12-15T01:23:04;118.53;;;43.20;;
57047;SDS011;42934;54.294;18.598;2022-12-15T01:25:33;117.05;;;43.50;;
57047;SDS011;42934;54.294;18.598;2022-12-15T01:28:06;104.53;;;40.83;;
57047;SDS011;42934;54.294;18.598;2022-12-15T01:30:35;104.33;;;41.73;;
57047;SDS011;42934;54.294;18.598;2022-12-15T01:33:05;104.93;;;42.00;;
57047;SDS011;42934;54.294;18.598;2022-12-15T01:35:35;101.22;;;41.72;;
57047;SDS011;42934;54.294;18.598;2022-12-15T01:38:04;99.10;;;39.03;;
57047;SDS011;42934;54.294;18.598;2022-12-15T01:40:33;103.10;;;39.70;;
57047;SDS011;42934;54.294;18.598;2022-12-15T01:43:13;98.90;;;40.47;;
57047;SDS011;42934;54.294;18.598;2022-12-15T01:45:46;102.30;;;37.57;;
57047;SDS011;42934;54.294;18.598;2022-12-15T01:48:18;100.90;;;38.93;;
57047;SDS011;42934;54.294;18.598;2022-12-15T01:51:05;97.47;;;36.17;;
57047;SDS011;42934;54.294;18.598;2022-12-15T01:53:41;90.90;;;35.87;;
57047;SDS011;42934;54.294;18.598;2022-12-15T01:56:16;100.30;;;38.27;;
57047;SDS011;42934;54.294;18.598;2022-12-15T01:58:48;95.83;;;37.27;;
57047;SDS011;42934;54.294;18.598;2022-12-15T02:01:21;104.67;;;37.50;;
57047;SDS011;42934;54.294;18.598;2022-12-15T02:03:50;100.43;;;38.30;;
57047;SDS011;42934;54.294;18.598;2022-12-15T02:06:19;95.72;;;36.38;;
57047;SDS011;42934;54.294;18.598;2022-12-15T02:08:50;90.45;;;38.03;;
57047;SDS011;42934;54.294;18.598;2022-12-15T02:11:29;105.20;;;38.60;;
57047;SDS011;42934;54.294;18.598;2022-12-15T02:14:11;97.57;;;37.30;;
57047;SDS011;42934;54.294;18.598;2022-12-15T02:16:52;92.40;;;35.33;;
57047;SDS011;42934;54.294;18.598;2022-12-15T02:19:39;104.10;;;43.47;;
57047;SDS011;42934;54.294;18.598;2022-12-15T02:22:38;82.17;;;31.80;;
57047;SDS011;42934;54.294;18.598;2022-12-15T02:25:39;91.07;;;35.93;;
57047;SDS011;42934;54.294;18.598;2022-12-15T02:28:25;91.70;;;35.87;;
57047;SDS011;42934;54.294;18.598;2022-12-15T02:31:12;81.57;;;31.07;;
57047;SDS011;42934;54.294;18.598;2022-12-15T02:34:07;95.03;;;35.20;;
57047;SDS011;42934;54.294;18.598;2022-12-15T02:36:42;84.20;;;30.60;;
57047;SDS011;42934;54.294;18.598;2022-12-15T02:39:14;86.77;;;32.23;;
57047;SDS011;42934;54.294;18.598;2022-12-15T02:41:46;88.53;;;33.67;;
57047;SDS011;42934;54.294;18.598;2022-12-15T02:44:18;92.03;;;33.93;;
57047;SDS011;42934;54.294;18.598;2022-12-15T02:47:06;91.97;;;34.60;;
57047;SDS011;42934;54.294;18.598;2022-12-15T02:49:53;91.23;;;33.80;;
57047;SDS011;42934;54.294;18.598;2022-12-15T02:52:57;85.57;;;32.57;;
57047;SDS011;42934;54.294;18.598;2022-12-15T02:55:36;80.60;;;32.10;;
57047;SDS011;42934;54.294;18.598;2022-12-15T02:58:18;85.43;;;32.97;;
57047;SDS011;42934;54.294;18.598;2022-12-15T03:00:55;94.63;;;35.50;;
57047;SDS011;42934;54.294;18.598;2022-12-15T03:03:29;88.53;;;33.43;;
57047;SDS011;42934;54.294;18.598;2022-12-15T03:06:02;84.73;;;30.40;;
57047;SDS011;42934;54.294;18.598;2022-12-15T03:08:32;86.72;;;32.97;;
57047;SDS011;42934;54.294;18.598;2022-12-15T03:11:01;87.43;;;32.77;;
57047;SDS011;42934;54.294;18.598;2022-12-15T03:13:30;96.03;;;33.60;;
57047;SDS011;42934;54.294;18.598;2022-12-15T03:16:00;85.75;;;29.95;;
57047;SDS011;42934;54.294;18.598;2022-12-15T03:18:31;95.43;;;34.17;;
57047;SDS011;42934;54.294;18.598;2022-12-15T03:21:01;75.17;;;29.03;;
57047;SDS011;42934;54.294;18.598;2022-12-15T03:23:30;78.63;;;32.63;;
57047;SDS011;42934;54.294;18.598;2022-12-15T03:26:00;80.22;;;30.52;;
57047;SDS011;42934;54.294;18.598;2022-12-15T03:28:29;75.87;;;29.97;;
57047;SDS011;42934;54.294;18.598;2022-12-15T03:31:00;74.47;;;29.80;;
57047;SDS011;42934;54.294;18.598;2022-12-15T03:33:30;85.37;;;32.90;;
57047;SDS011;42934;54.294;18.598;2022-12-15T03:36:01;83.10;;;33.30;;
57047;SDS011;42934;54.294;18.598;2022-12-15T03:38:31;98.67;;;33.93;;
57047;SDS011;42934;54.294;18.598;2022-12-15T03:41:00;84.65;;;32.40;;
57047;SDS011;42934;54.294;18.598;2022-12-15T03:43:29;76.83;;;30.87;;
57047;SDS011;42934;54.294;18.598;2022-12-15T03:48:28;74.13;;;27.80;;
57047;SDS011;42934;54.294;18.598;2022-12-15T03:50:59;71.97;;;27.45;;
57047;SDS011;42934;54.294;18.598;2022-12-15T03:53:28;76.93;;;28.80;;
57047;SDS011;42934;54.294;18.598;2022-12-15T03:55:58;81.07;;;29.10;;
57047;SDS011;42934;54.294;18.598;2022-12-15T03:58:27;71.60;;;26.77;;
57047;SDS011;42934;54.294;18.598;2022-12-15T04:00:57;77.97;;;29.80;;
57047;SDS011;42934;54.294;18.598;2022-12-15T04:03:26;92.10;;;33.33;;
57047;SDS011;42934;54.294;18.598;2022-12-15T04:08:26;61.83;;;26.33;;
57047;SDS011;42934;54.294;18.598;2022-12-15T04:10:56;84.63;;;29.90;;
57047;SDS011;42934;54.294;18.598;2022-12-15T04:13:25;80.93;;;29.60;;
57047;SDS011;42934;54.294;18.598;2022-12-15T04:15:55;68.03;;;24.80;;
57047;SDS011;42934;54.294;18.598;2022-12-15T04:18:24;83.17;;;30.70;;
57047;SDS011;42934;54.294;18.598;2022-12-15T04:20:53;74.75;;;29.15;;
57047;SDS011;42934;54.294;18.598;2022-12-15T04:23:22;83.37;;;31.40;;
57047;SDS011;42934;54.294;18.598;2022-12-15T04:25:52;75.22;;;29.40;;
57047;SDS011;42934;54.294;18.598;2022-12-15T04:28:39;65.47;;;24.40;;
57047;SDS011;42934;54.294;18.598;2022-12-15T04:31:26;67.97;;;27.07;;
57047;SDS011;42934;54.294;18.598;2022-12-15T04:34:17;75.72;;;27.35;;
57047;SDS011;42934;54.294;18.598;2022-12-15T04:37:08;78.43;;;27.07;;
57047;SDS011;42934;54.294;18.598;2022-12-15T04:39:58;81.73;;;29.10;;
57047;SDS011;42934;54.294;18.598;2022-12-15T04:42:47;79.20;;;29.27;;
57047;SDS011;42934;54.294;18.598;2022-12-15T04:45:33;68.17;;;26.33;;
57047;SDS011;42934;54.294;18.598;2022-12-15T04:48:20;72.37;;;27.30;;
57047;SDS011;42934;54.294;18.598;2022-12-15T04:51:06;77.93;;;27.87;;
57047;SDS011;42934;54.294;18.598;2022-12-15T04:53:53;77.83;;;29.13;;
57047;SDS011;42934;54.294;18.598;2022-12-15T04:56:39;73.97;;;28.03;;
57047;SDS011;42934;54.294;18.598;2022-12-15T04:59:27;75.03;;;28.17;;
57047;SDS011;42934;54.294;18.598;2022-12-15T05:02:14;68.20;;;26.37;;
57047;SDS011;42934;54.294;18.598;2022-12-15T05:05:01;74.00;;;29.17;;
57047;SDS011;42934;54.294;18.598;2022-12-15T05:07:48;76.50;;;28.33;;
57047;SDS011;42934;54.294;18.598;2022-12-15T05:10:34;69.57;;;27.93;;
57047;SDS011;42934;54.294;18.598;2022-12-15T05:13:21;71.20;;;27.97;;
57047;SDS011;42934;54.294;18.598;2022-12-15T05:16:09;68.77;;;26.90;;
57047;SDS011;42934;54.294;18.598;2022-12-15T05:18:55;70.07;;;26.40;;
57047;SDS011;42934;54.294;18.598;2022-12-15T05:21:42;69.67;;;26.13;;
57047;SDS011;42934;54.294;18.598;2022-12-15T05:24:29;64.40;;;27.10;;
57047;SDS011;42934;54.294;18.598;2022-12-15T05:27:16;73.60;;;26.97;;
57047;SDS011;42934;54.294;18.598;2022-12-15T05:30:03;71.10;;;28.17;;
57047;SDS011;42934;54.294;18.598;2022-12-15T05:32:51;74.27;;;27.33;;
57047;SDS011;42934;54.294;18.598;2022-12-15T05:35:21;68.67;;;25.83;;
57047;SDS011;42934;54.294;18.598;2022-12-15T05:37:50;62.97;;;25.77;;
57047;SDS011;42934;54.294;18.598;2022-12-15T05:40:19;80.17;;;29.93;;
57047;SDS011;42934;54.294;18.598;2022-12-15T05:42:49;70.88;;;28.08;;
57047;SDS011;42934;54.294;18.598;2022-12-15T05:45:18;71.83;;;27.80;;
57047;SDS011;42934;54.294;18.598;2022-12-15T05:47:49;77.70;;;30.02;;
57047;SDS011;42934;54.294;18.598;2022-12-15T05:50:20;67.77;;;27.93;;
57047;SDS011;42934;54.294;18.598;2022-12-15T05:55:19;79.90;;;29.20;;
57047;SDS011;42934;54.294;18.598;2022-12-15T05:57:49;71.13;;;28.40;;
57047;SDS011;42934;54.294;18.598;2022-12-15T06:00:19;78.75;;;29.90;;
57047;SDS011;42934;54.294;18.598;2022-12-15T06:02:48;81.25;;;29.63;;
57047;SDS011;42934;54.294;18.598;2022-12-15T06:05:19;76.32;;;26.25;;
57047;SDS011;42934;54.294;18.598;2022-12-15T06:07:49;76.13;;;27.33;;
57047;SDS011;42934;54.294;18.598;2022-12-15T06:10:18;73.13;;;25.17;;
57047;SDS011;42934;54.294;18.598;2022-12-15T06:12:47;84.05;;;30.17;;
57047;SDS011;42934;54.294;18.598;2022-12-15T06:15:16;82.47;;;30.57;;
57047;SDS011;42934;54.294;18.598;2022-12-15T06:17:45;82.05;;;31.55;;
57047;SDS011;42934;54.294;18.598;2022-12-15T06:20:15;84.97;;;32.17;;
57047;SDS011;42934;54.294;18.598;2022-12-15T06:22:46;78.05;;;30.35;;
57047;SDS011;42934;54.294;18.598;2022-12-15T06:25:15;81.23;;;29.97;;
57047;SDS011;42934;54.294;18.598;2022-12-15T06:27:45;86.25;;;31.15;;
57047;SDS011;42934;54.294;18.598;2022-12-15T06:30:14;77.40;;;30.33;;
57047;SDS011;42934;54.294;18.598;2022-12-15T06:32:45;85.17;;;31.83;;
57047;SDS011;42934;54.294;18.598;2022-12-15T06:35:15;81.60;;;30.67;;
57047;SDS011;42934;54.294;18.598;2022-12-15T06:37:46;78.43;;;29.83;;
57047;SDS011;42934;54.294;18.598;2022-12-15T06:40:15;82.30;;;29.10;;
57047;SDS011;42934;54.294;18.598;2022-12-15T06:42:45;74.00;;;28.90;;
57047;SDS011;42934;54.294;18.598;2022-12-15T06:45:14;73.43;;;25.83;;
57047;SDS011;42934;54.294;18.598;2022-12-15T06:47:43;88.05;;;32.45;;
57047;SDS011;42934;54.294;18.598;2022-12-15T06:50:12;87.33;;;31.47;;
57047;SDS011;42934;54.294;18.598;2022-12-15T06:52:42;75.07;;;29.17;;
57047;SDS011;42934;54.294;18.598;2022-12-15T06:55:12;82.97;;;30.63;;
57047;SDS011;42934;54.294;18.598;2022-12-15T06:57:42;87.50;;;31.53;;
57047;SDS011;42934;54.294;18.598;2022-12-15T07:00:14;93.23;;;31.90;;
57047;SDS011;42934;54.294;18.598;2022-12-15T07:02:44;84.67;;;31.17;;
57047;SDS011;42934;54.294;18.598;2022-12-15T07:05:16;86.50;;;33.33;;
57047;SDS011;42934;54.294;18.598;2022-12-15T07:07:45;88.60;;;32.65;;
57047;SDS011;42934;54.294;18.598;2022-12-15T07:10:16;91.67;;;32.77;;
57047;SDS011;42934;54.294;18.598;2022-12-15T07:12:45;94.53;;;34.17;;
57047;SDS011;42934;54.294;18.598;2022-12-15T07:15:14;95.37;;;34.90;;
57047;SDS011;42934;54.294;18.598;2022-12-15T07:17:44;107.10;;;36.53;;
57047;SDS011;42934;54.294;18.598;2022-12-15T07:20:13;97.27;;;35.53;;
57047;SDS011;42934;54.294;18.598;2022-12-15T07:22:42;113.38;;;38.30;;
57047;SDS011;42934;54.294;18.598;2022-12-15T07:25:18;117.37;;;39.97;;
57047;SDS011;42934;54.294;18.598;2022-12-15T07:27:47;103.50;;;35.80;;
57047;SDS011;42934;54.294;18.598;2022-12-15T07:30:16;121.17;;;40.63;;
57047;SDS011;42934;54.294;18.598;2022-12-15T07:32:46;113.78;;;40.78;;
57047;SDS011;42934;54.294;18.598;2022-12-15T07:35:16;91.78;;;33.45;;
57047;SDS011;42934;54.294;18.598;2022-12-15T07:37:45;111.97;;;38.08;;
57047;SDS011;42934;54.294;18.598;2022-12-15T07:40:14;110.57;;;40.20;;
57047;SDS011;42934;54.294;18.598;2022-12-15T07:42:45;92.18;;;36.70;;
57047;SDS011;42934;54.294;18.598;2022-12-15T07:45:15;99.23;;;35.63;;
57047;SDS011;42934;54.294;18.598;2022-12-15T07:47:46;105.15;;;37.25;;
57047;SDS011;42934;54.294;18.598;2022-12-15T07:50:17;105.43;;;37.50;;
57047;SDS011;42934;54.294;18.598;2022-12-15T07:52:46;109.53;;;38.80;;
57047;SDS011;42934;54.294;18.598;2022-12-15T07:55:17;102.13;;;38.23;;
57047;SDS011;42934;54.294;18.598;2022-12-15T07:58:08;125.80;;;41.50;;
57047;SDS011;42934;54.294;18.598;2022-12-15T08:00:37;117.37;;;42.30;;
57047;SDS011;42934;54.294;18.598;2022-12-15T08:03:14;94.07;;;34.70;;
57047;SDS011;42934;54.294;18.598;2022-12-15T08:05:43;100.43;;;34.25;;
57047;SDS011;42934;54.294;18.598;2022-12-15T08:08:13;91.15;;;34.58;;
57047;SDS011;42934;54.294;18.598;2022-12-15T08:10:44;94.07;;;34.57;;
57047;SDS011;42934;54.294;18.598;2022-12-15T08:13:15;83.07;;;31.70;;
57047;SDS011;42934;54.294;18.598;2022-12-15T08:16:04;97.73;;;37.07;;
57047;SDS011;42934;54.294;18.598;2022-12-15T08:18:34;81.05;;;32.45;;
57047;SDS011;42934;54.294;18.598;2022-12-15T08:21:03;94.80;;;34.77;;
57047;SDS011;42934;54.294;18.598;2022-12-15T08:23:34;93.17;;;34.00;;
57047;SDS011;42934;54.294;18.598;2022-12-15T08:26:05;96.23;;;37.50;;
57047;SDS011;42934;54.294;18.598;2022-12-15T08:28:38;88.33;;;34.53;;
57047;SDS011;42934;54.294;18.598;2022-12-15T08:31:08;86.37;;;33.77;;
57047;SDS011;42934;54.294;18.598;2022-12-15T08:33:39;81.23;;;30.40;;
57047;SDS011;42934;54.294;18.598;2022-12-15T08:38:39;78.80;;;27.40;;
57047;SDS011;42934;54.294;18.598;2022-12-15T08:43:41;75.72;;;27.83;;
57047;SDS011;42934;54.294;18.598;2022-12-15T08:46:15;76.40;;;28.83;;
57047;SDS011;42934;54.294;18.598;2022-12-15T08:48:45;78.20;;;29.55;;
57047;SDS011;42934;54.294;18.598;2022-12-15T08:51:15;74.28;;;27.58;;
57047;SDS011;42934;54.294;18.598;2022-12-15T08:53:44;66.45;;;26.98;;
57047;SDS011;42934;54.294;18.598;2022-12-15T08:58:47;76.63;;;27.53;;
57047;SDS011;42934;54.294;18.598;2022-12-15T09:01:18;86.37;;;31.93;;
57047;SDS011;42934;54.294;18.598;2022-12-15T09:03:50;104.27;;;34.97;;
57047;SDS011;42934;54.294;18.598;2022-12-15T09:06:21;88.30;;;31.97;;
57047;SDS011;42934;54.294;18.598;2022-12-15T09:08:53;85.27;;;32.80;;
57047;SDS011;42934;54.294;18.598;2022-12-15T09:11:23;89.60;;;33.43;;
57047;SDS011;42934;54.294;18.598;2022-12-15T09:16:23;74.33;;;29.00;;
57047;SDS011;42934;54.294;18.598;2022-12-15T09:18:55;85.37;;;30.37;;
57047;SDS011;42934;54.294;18.598;2022-12-15T09:21:26;67.03;;;27.70;;
57047;SDS011;42934;54.294;18.598;2022-12-15T09:23:58;77.60;;;29.57;;
57047;SDS011;42934;54.294;18.598;2022-12-15T09:26:30;82.13;;;28.73;;
57047;SDS011;42934;54.294;18.598;2022-12-15T09:29:02;79.30;;;29.93;;
57047;SDS011;42934;54.294;18.598;2022-12-15T09:31:32;81.73;;;31.90;;
57047;SDS011;42934;54.294;18.598;2022-12-15T09:34:04;77.57;;;32.33;;
57047;SDS011;42934;54.294;18.598;2022-12-15T09:36:33;88.53;;;31.70;;
57047;SDS011;42934;54.294;18.598;2022-12-15T09:39:03;78.50;;;31.35;;
57047;SDS011;42934;54.294;18.598;2022-12-15T09:41:32;75.93;;;29.33;;
57047;SDS011;42934;54.294;18.598;2022-12-15T09:44:05;79.03;;;30.13;;
57047;SDS011;42934;54.294;18.598;2022-12-15T09:46:42;76.13;;;29.52;;
57047;SDS011;42934;54.294;18.598;2022-12-15T09:49:21;74.88;;;30.08;;
57047;SDS011;42934;54.294;18.598;2022-12-15T09:51:59;79.50;;;31.55;;
57047;SDS011;42934;54.294;18.598;2022-12-15T09:54:37;83.88;;;32.20;;
57047;SDS011;42934;54.294;18.598;2022-12-15T09:57:10;78.83;;;31.13;;
57047;SDS011;42934;54.294;18.598;2022-12-15T09:59:54;82.38;;;32.33;;
57047;SDS011;42934;54.294;18.598;2022-12-15T10:02:48;83.10;;;32.17;;
57047;SDS011;42934;54.294;18.598;2022-12-15T10:05:45;82.82;;;32.95;;
57047;SDS011;42934;54.294;18.598;2022-12-15T10:08:47;80.03;;;31.98;;
57047;SDS011;42934;54.294;18.598;2022-12-15T10:11:23;79.43;;;31.20;;
57047;SDS011;42934;54.294;18.598;2022-12-15T10:14:06;80.22;;;32.08;;
57047;SDS011;42934;54.294;18.598;2022-12-15T10:16:49;83.15;;;35.55;;
57047;SDS011;42934;54.294;18.598;2022-12-15T10:19:24;95.47;;;39.45;;
57047;SDS011;42934;54.294;18.598;2022-12-15T10:21:58;95.97;;;38.55;;
57047;SDS011;42934;54.294;18.598;2022-12-15T10:24:28;77.05;;;33.17;;
57047;SDS011;42934;54.294;18.598;2022-12-15T10:27:22;90.43;;;35.50;;
57047;SDS011;42934;54.294;18.598;2022-12-15T10:30:00;78.43;;;33.08;;
57047;SDS011;42934;54.294;18.598;2022-12-15T10:32:36;84.18;;;33.45;;
57047;SDS011;42934;54.294;18.598;2022-12-15T10:35:17;82.43;;;33.55;;
57047;SDS011;42934;54.294;18.598;2022-12-15T10:37:49;93.20;;;34.63;;
57047;SDS011;42934;54.294;18.598;2022-12-15T10:40:19;94.65;;;36.25;;
57047;SDS011;42934;54.294;18.598;2022-12-15T10:43:11;92.78;;;35.20;;
57047;SDS011;42934;54.294;18.598;2022-12-15T10:45:41;77.53;;;32.25;;
57047;SDS011;42934;54.294;18.598;2022-12-15T10:48:18;88.57;;;34.47;;
57047;SDS011;42934;54.294;18.598;2022-12-15T10:50:47;83.43;;;34.55;;
57047;SDS011;42934;54.294;18.598;2022-12-15T10:53:31;87.15;;;35.22;;
57047;SDS011;42934;54.294;18.598;2022-12-15T10:56:06;87.68;;;31.10;;
57047;SDS011;42934;54.294;18.598;2022-12-15T10:58:44;87.20;;;32.40;;
57047;SDS011;42934;54.294;18.598;2022-12-15T11:01:16;74.55;;;28.95;;
57047;SDS011;42934;54.294;18.598;2022-12-15T11:03:49;77.47;;;29.52;;
57047;SDS011;42934;54.294;18.598;2022-12-15T11:06:20;75.82;;;28.38;;
57047;SDS011;42934;54.294;18.598;2022-12-15T11:08:52;65.82;;;25.73;;
57047;SDS011;42934;54.294;18.598;2022-12-15T11:11:24;71.93;;;28.52;;
57047;SDS011;42934;54.294;18.598;2022-12-15T11:14:17;68.03;;;26.88;;
57047;SDS011;42934;54.294;18.598;2022-12-15T11:16:51;74.10;;;28.33;;
57047;SDS011;42934;54.294;18.598;2022-12-15T11:19:34;64.90;;;27.08;;
57047;SDS011;42934;54.294;18.598;2022-12-15T11:22:08;60.42;;;24.85;;
57047;SDS011;42934;54.294;18.598;2022-12-15T11:24:46;55.50;;;23.85;;
57047;SDS011;42934;54.294;18.598;2022-12-15T11:27:23;53.05;;;23.52;;
57047;SDS011;42934;54.294;18.598;2022-12-15T11:30:00;49.83;;;22.60;;
57047;SDS011;42934;54.294;18.598;2022-12-15T11:32:40;48.63;;;21.42;;
57047;SDS011;42934;54.294;18.598;2022-12-15T11:35:17;43.72;;;20.02;;
57047;SDS011;42934;54.294;18.598;2022-12-15T11:37:55;44.28;;;19.30;;
57047;SDS011;42934;54.294;18.598;2022-12-15T11:40:32;45.50;;;18.45;;
57047;SDS011;42934;54.294;18.598;2022-12-15T11:43:15;39.78;;;18.45;;
57047;SDS011;42934;54.294;18.598;2022-12-15T11:46:00;41.92;;;18.33;;
57047;SDS011;42934;54.294;18.598;2022-12-15T11:48:45;43.60;;;19.45;;
57047;SDS011;42934;54.294;18.598;2022-12-15T11:51:29;47.75;;;19.42;;
57047;SDS011;42934;54.294;18.598;2022-12-15T11:54:12;40.65;;;18.80;;
57047;SDS011;42934;54.294;18.598;2022-12-15T11:56:52;46.20;;;17.85;;
57047;SDS011;42934;54.294;18.598;2022-12-15T11:59:33;37.65;;;17.33;;
57047;SDS011;42934;54.294;18.598;2022-12-15T12:02:25;43.63;;;18.55;;
57047;SDS011;42934;54.294;18.598;2022-12-15T12:08:16;43.55;;;18.67;;
57047;SDS011;42934;54.294;18.598;2022-12-15T12:10:58;46.73;;;19.20;;
57047;SDS011;42934;54.294;18.598;2022-12-15T12:13:37;44.17;;;20.15;;
57047;SDS011;42934;54.294;18.598;2022-12-15T12:16:24;44.05;;;18.42;;
57047;SDS011;42934;54.294;18.598;2022-12-15T12:18:59;35.92;;;17.13;;
57047;SDS011;42934;54.294;18.598;2022-12-15T12:21:33;39.80;;;17.92;;
57047;SDS011;42934;54.294;18.598;2022-12-15T12:24:10;33.30;;;15.65;;
57047;SDS011;42934;54.294;18.598;2022-12-15T12:26:46;46.85;;;18.42;;
57047;SDS011;42934;54.294;18.598;2022-12-15T12:29:22;40.80;;;18.38;;
57047;SDS011;42934;54.294;18.598;2022-12-15T12:32:00;44.03;;;18.92;;
57047;SDS011;42934;54.294;18.598;2022-12-15T12:37:44;42.45;;;18.17;;
57047;SDS011;42934;54.294;18.598;2022-12-15T12:40:22;41.25;;;19.02;;
57047;SDS011;42934;54.294;18.598;2022-12-15T12:42:57;42.63;;;18.92;;
57047;SDS011;42934;54.294;18.598;2022-12-15T12:45:32;44.13;;;20.75;;
57047;SDS011;42934;54.294;18.598;2022-12-15T12:48:08;50.90;;;21.23;;
57047;SDS011;42934;54.294;18.598;2022-12-15T12:50:41;45.60;;;20.63;;
57047;SDS011;42934;54.294;18.598;2022-12-15T12:53:23;43.95;;;20.13;;
57047;SDS011;42934;54.294;18.598;2022-12-15T12:56:02;44.50;;;19.80;;
57047;SDS011;42934;54.294;18.598;2022-12-15T12:58:32;50.55;;;21.83;;
57047;SDS011;42934;54.294;18.598;2022-12-15T13:01:13;47.08;;;20.55;;
57047;SDS011;42934;54.294;18.598;2022-12-15T13:03:46;41.38;;;19.40;;
57047;SDS011;42934;54.294;18.598;2022-12-15T13:09:35;54.53;;;23.73;;
57047;SDS011;42934;54.294;18.598;2022-12-15T13:15:30;72.50;;;28.70;;
57047;SDS011;42934;54.294;18.598;2022-12-15T13:18:05;63.22;;;26.35;;
57047;SDS011;42934;54.294;18.598;2022-12-15T13:20:40;72.00;;;29.92;;
57047;SDS011;42934;54.294;18.598;2022-12-15T13:23:34;64.45;;;25.98;;
57047;SDS011;42934;54.294;18.598;2022-12-15T13:26:11;69.85;;;29.33;;
57047;SDS011;42934;54.294;18.598;2022-12-15T13:28:48;67.15;;;27.80;;
57047;SDS011;42934;54.294;18.598;2022-12-15T13:31:29;74.28;;;30.52;;
57047;SDS011;42934;54.294;18.598;2022-12-15T13:34:17;72.65;;;30.48;;
57047;SDS011;42934;54.294;18.598;2022-12-15T13:36:55;72.15;;;28.85;;
57047;SDS011;42934;54.294;18.598;2022-12-15T13:45:32;65.10;;;27.65;;
57047;SDS011;42934;54.294;18.598;2022-12-15T13:48:20;71.97;;;28.58;;
57047;SDS011;42934;54.294;18.598;2022-12-15T13:51:01;67.72;;;27.73;;
57047;SDS011;42934;54.294;18.598;2022-12-15T13:53:51;65.93;;;29.08;;
57047;SDS011;42934;54.294;18.598;2022-12-15T13:56:43;75.35;;;30.48;;
57047;SDS011;42934;54.294;18.598;2022-12-15T13:59:19;71.47;;;28.55;;
57047;SDS011;42934;54.294;18.598;2022-12-15T14:01:59;77.60;;;30.73;;
57047;SDS011;42934;54.294;18.598;2022-12-15T14:04:28;68.22;;;29.85;;
57047;SDS011;42934;54.294;18.598;2022-12-15T14:06:59;69.10;;;29.90;;
57047;SDS011;42934;54.294;18.598;2022-12-15T14:09:31;80.05;;;32.47;;
57047;SDS011;42934;54.294;18.598;2022-12-15T14:12:03;71.90;;;30.70;;
57047;SDS011;42934;54.294;18.598;2022-12-15T14:14:35;79.75;;;33.08;;
57047;SDS011;42934;54.294;18.598;2022-12-15T14:17:17;75.38;;;31.52;;
57047;SDS011;42934;54.294;18.598;2022-12-15T14:19:47;81.65;;;34.47;;
57047;SDS011;42934;54.294;18.598;2022-12-15T14:22:18;79.55;;;32.97;;
57047;SDS011;42934;54.294;18.598;2022-12-15T14:24:59;87.50;;;33.70;;
57047;SDS011;42934;54.294;18.598;2022-12-15T14:27:30;89.93;;;38.47;;
57047;SDS011;42934;54.294;18.598;2022-12-15T14:30:23;97.25;;;39.15;;
57047;SDS011;42934;54.294;18.598;2022-12-15T14:32:56;81.47;;;32.17;;
57047;SDS011;42934;54.294;18.598;2022-12-15T14:35:30;95.72;;;38.72;;
57047;SDS011;42934;54.294;18.598;2022-12-15T14:38:04;101.00;;;40.67;;
57047;SDS011;42934;54.294;18.598;2022-12-15T14:40:40;110.43;;;40.03;;
57047;SDS011;42934;54.294;18.598;2022-12-15T14:43:17;102.38;;;39.92;;
57047;SDS011;42934;54.294;18.598;2022-12-15T14:45:49;90.63;;;37.78;;
57047;SDS011;42934;54.294;18.598;2022-12-15T14:48:26;95.28;;;37.08;;
57047;SDS011;42934;54.294;18.598;2022-12-15T14:51:08;96.28;;;40.58;;
57047;SDS011;42934;54.294;18.598;2022-12-15T14:53:40;94.90;;;38.17;;
57047;SDS011;42934;54.294;18.598;2022-12-15T14:56:26;95.55;;;38.08;;
57047;SDS011;42934;54.294;18.598;2022-12-15T14:58:58;87.85;;;36.20;;
57047;SDS011;42934;54.294;18.598;2022-12-15T15:01:33;95.63;;;39.72;;
57047;SDS011;42934;54.294;18.598;2022-12-15T15:04:21;90.53;;;37.28;;
57047;SDS011;42934;54.294;18.598;2022-12-15T15:06:52;92.50;;;35.92;;
57047;SDS011;42934;54.294;18.598;2022-12-15T15:09:23;94.20;;;38.45;;
57047;SDS011;42934;54.294;18.598;2022-12-15T15:11:56;93.65;;;37.75;;
57047;SDS011;42934;54.294;18.598;2022-12-15T15:14:31;88.40;;;34.60;;
57047;SDS011;42934;54.294;18.598;2022-12-15T15:17:05;80.35;;;33.17;;
57047;SDS011;42934;54.294;18.598;2022-12-15T15:19:46;92.03;;;36.88;;
57047;SDS011;42934;54.294;18.598;2022-12-15T15:22:23;96.68;;;39.63;;
57047;SDS011;42934;54.294;18.598;2022-12-15T15:25:02;88.57;;;35.65;;
57047;SDS011;42934;54.294;18.598;2022-12-15T15:28:10;89.97;;;37.13;;
57047;SDS011;42934;54.294;18.598;2022-12-15T15:30:42;87.72;;;36.17;;
57047;SDS011;42934;54.294;18.598;2022-12-15T15:33:14;104.43;;;40.00;;
57047;SDS011;42934;54.294;18.598;2022-12-15T15:35:48;90.38;;;36.35;;